createdAt,value
2019-06-25T00:02:25.850Z,52.79
2019-06-25T00:04:55.755Z,52.67
2019-06-25T00:07:25.649Z,52.89
2019-06-25T00:09:55.378Z,53.06
2019-06-25T00:12:25.116Z,53.32
2019-06-25T00:14:54.802Z,53.48
2019-06-25T00:17:24.498Z,53.14
2019-06-25T00:19:54.238Z,53.42
2019-06-25T00:22:24.096Z,53.71
2019-06-25T00:24:53.809Z,53.64
2019-06-25T00:27:23.576Z,53.86
2019-06-25T00:29:56.435Z,53.92
2019-06-25T00:32:24.817Z,53.72
2019-06-25T00:34:54.540Z,54.07
2019-06-25T00:37:24.405Z,53.93
2019-06-25T00:39:54.114Z,54.07
2019-06-25T00:42:23.832Z,54.21
2019-06-25T00:44:53.600Z,54.05
2019-06-25T00:47:23.291Z,54.19
2019-06-25T00:49:52.966Z,54.02
2019-06-25T00:52:22.708Z,53.98
2019-06-25T00:54:52.497Z,54.37
2019-06-25T00:57:22.253Z,54.35
2019-06-25T00:59:52.011Z,54.63
2019-06-25T01:02:32.302Z,54.78
2019-06-25T01:05:02.877Z,54.52
2019-06-25T01:07:32.767Z,54.79
2019-06-25T01:10:02.555Z,54.87
2019-06-25T01:12:32.327Z,55.04
2019-06-25T01:15:02.082Z,55.03
2019-06-25T01:17:32.191Z,54.67
2019-06-25T01:20:02.067Z,55.12
2019-06-25T01:22:31.897Z,55.01
2019-06-25T01:25:01.607Z,55.25
2019-06-25T01:27:31.384Z,55.26
2019-06-25T01:30:01.167Z,54.89
2019-06-25T01:32:30.837Z,55.21
2019-06-25T01:35:00.569Z,55.34
2019-06-25T01:37:30.356Z,55.20
2019-06-25T01:40:00.215Z,55.15
2019-06-25T01:42:29.929Z,55.08
2019-06-25T01:44:59.680Z,54.63
2019-06-25T01:47:29.567Z,55.03
2019-06-25T01:49:59.222Z,54.87
2019-06-25T01:52:28.933Z,54.77
2019-06-25T01:54:58.645Z,54.90
2019-06-25T01:57:29.963Z,54.81
2019-06-25T01:59:59.629Z,54.93
2019-06-25T02:02:29.762Z,55.01
2019-06-25T02:04:59.468Z,55.03
2019-06-25T02:07:29.184Z,54.92
2019-06-25T02:09:58.910Z,55.10
2019-06-25T02:12:28.641Z,54.73
2019-06-25T02:14:58.285Z,55.06
2019-06-25T02:17:29.707Z,54.95
2019-06-25T02:19:59.375Z,54.89
2019-06-25T02:22:29.134Z,54.62
2019-06-25T02:24:58.876Z,54.21
2019-06-25T02:27:28.707Z,54.69
2019-06-25T02:29:58.355Z,54.63
2019-06-25T02:32:28.160Z,54.57
2019-06-25T02:34:57.829Z,54.57
2019-06-25T02:37:27.549Z,54.88
2019-06-25T02:39:57.308Z,54.67
2019-06-25T02:42:26.995Z,55.11
2019-06-25T02:44:56.726Z,55.34
2019-06-25T02:47:26.477Z,55.35
2019-06-25T02:49:56.233Z,55.32
2019-06-25T02:52:25.964Z,55.31
2019-06-25T02:54:55.625Z,55.50
2019-06-25T02:57:25.318Z,55.41
2019-06-25T02:59:54.974Z,55.62
2019-06-25T03:02:24.664Z,55.78
2019-06-25T03:04:54.442Z,55.86
2019-06-25T03:07:24.207Z,56.09
2019-06-25T03:09:53.926Z,56.31
2019-06-25T03:12:23.666Z,56.19
2019-06-25T03:14:53.339Z,56.31
2019-06-25T03:17:23.124Z,56.42
2019-06-25T03:19:52.964Z,56.39
2019-06-25T03:22:22.660Z,56.37
2019-06-25T03:24:52.397Z,56.46
2019-06-25T03:27:22.357Z,56.54
2019-06-25T03:29:52.055Z,56.14
2019-06-25T03:32:21.798Z,56.11
2019-06-25T03:34:51.511Z,55.83
2019-06-25T03:37:21.301Z,55.79
2019-06-25T03:39:51.022Z,55.59
2019-06-25T03:42:20.721Z,55.59
2019-06-25T03:44:50.434Z,55.26
2019-06-25T03:47:20.235Z,55.47
2019-06-25T03:49:49.884Z,55.55
2019-06-25T03:52:19.738Z,55.37
2019-06-25T03:54:49.416Z,55.29
2019-06-25T03:57:19.116Z,55.16
2019-06-25T03:59:48.935Z,54.96
2019-06-25T04:02:18.686Z,54.91
2019-06-25T04:04:48.539Z,54.53
2019-06-25T04:07:18.352Z,54.58
2019-06-25T04:09:48.129Z,54.85
2019-06-25T04:12:17.806Z,54.48
2019-06-25T04:14:47.485Z,54.59
2019-06-25T04:17:17.306Z,54.54
2019-06-25T04:19:47.048Z,54.70
2019-06-25T04:22:17.431Z,54.58
2019-06-25T04:24:47.147Z,54.65
2019-06-25T04:27:17.009Z,54.77
2019-06-25T04:29:46.701Z,54.85
2019-06-25T04:32:31.895Z,54.94
2019-06-25T04:34:47.914Z,55.18
2019-06-25T04:37:17.731Z,55.38
2019-06-25T04:39:47.447Z,55.22
2019-06-25T04:42:17.307Z,54.84
2019-06-25T04:44:46.983Z,55.00
2019-06-25T04:47:16.826Z,54.96
2019-06-25T04:49:46.607Z,54.95
2019-06-25T04:52:16.348Z,55.34
2019-06-25T04:54:46.084Z,55.06
2019-06-25T04:57:16.103Z,55.11
2019-06-25T04:59:45.930Z,54.63
2019-06-25T05:02:15.616Z,54.50
2019-06-25T05:04:45.364Z,54.50
2019-06-25T05:07:15.195Z,54.66
2019-06-25T05:09:44.958Z,54.19
2019-06-25T05:12:14.764Z,53.59
2019-06-25T05:14:47.505Z,53.95
2019-06-25T05:17:17.942Z,54.24
2019-06-25T05:19:47.819Z,53.18
2019-06-25T05:22:18.209Z,53.18
2019-06-25T05:24:49.275Z,52.34
2019-06-25T05:27:19.142Z,52.24
2019-06-25T05:29:49.048Z,51.97
2019-06-25T05:32:18.885Z,51.67
2019-06-25T05:34:48.782Z,50.58
2019-06-25T05:37:22.893Z,51.28
2019-06-25T05:39:52.991Z,50.46
2019-06-25T05:42:22.764Z,49.80
2019-06-25T05:44:52.578Z,50.18
2019-06-25T05:47:22.326Z,49.66
2019-06-25T05:49:52.095Z,49.72
2019-06-25T05:52:21.880Z,49.37
2019-06-25T05:54:51.730Z,49.16
2019-06-25T05:57:21.378Z,48.81
2019-06-25T05:59:51.145Z,49.12
2019-06-25T06:02:20.868Z,49.52
2019-06-25T06:04:50.697Z,49.74
2019-06-25T06:07:20.413Z,50.21
2019-06-25T06:09:50.395Z,50.40
2019-06-25T06:12:20.193Z,50.62
2019-06-25T06:14:50.392Z,50.73
2019-06-25T06:17:20.146Z,50.91
2019-06-25T06:19:50.079Z,50.86
2019-06-25T06:22:19.901Z,50.70
2019-06-25T06:24:49.728Z,50.63
2019-06-25T06:27:19.423Z,50.75
2019-06-25T06:29:49.206Z,50.87
2019-06-25T06:32:19.119Z,50.47
2019-06-25T06:34:48.840Z,50.04
2019-06-25T06:37:18.597Z,49.00
2019-06-25T06:39:48.602Z,48.99
2019-06-25T06:42:18.841Z,48.47
2019-06-25T06:44:48.792Z,47.52
2019-06-25T06:47:18.526Z,47.10
2019-06-25T06:49:48.339Z,46.79
2019-06-25T06:52:18.251Z,46.46
2019-06-25T06:54:48.239Z,46.03
2019-06-25T06:57:20.409Z,46.13
2019-06-25T06:59:49.587Z,45.94
2019-06-25T07:02:19.880Z,45.93
2019-06-25T07:04:49.794Z,45.96
2019-06-25T07:07:19.586Z,45.83
2019-06-25T07:09:49.553Z,46.40
2019-06-25T07:12:19.479Z,46.63
2019-06-25T07:14:49.456Z,46.52
2019-06-25T07:17:20.198Z,46.79
2019-06-25T07:19:50.143Z,47.14
2019-06-25T07:22:20.040Z,47.54
2019-06-25T07:24:50.120Z,47.72
2019-06-25T07:27:20.105Z,47.70
2019-06-25T07:29:49.781Z,47.49
2019-06-25T07:32:19.796Z,47.50
2019-06-25T07:34:49.663Z,47.86
2019-06-25T07:37:20.515Z,48.09
2019-06-25T07:39:50.405Z,48.46
2019-06-25T07:42:20.289Z,49.13
2019-06-25T07:44:50.404Z,48.97
2019-06-25T07:47:20.525Z,48.33
2019-06-25T07:49:50.336Z,48.12
2019-06-25T07:52:20.490Z,47.98
2019-06-25T07:54:50.451Z,47.96
2019-06-25T07:57:20.406Z,48.08
2019-06-25T07:59:50.274Z,48.17
2019-06-25T08:02:20.248Z,47.80
2019-06-25T08:04:50.696Z,47.49
2019-06-25T08:07:20.550Z,47.29
2019-06-25T08:09:50.445Z,47.57
2019-06-25T08:12:20.365Z,47.44
2019-06-25T08:14:50.452Z,47.13
2019-06-25T08:17:20.281Z,46.97
2019-06-25T08:19:50.159Z,46.38
2019-06-25T08:22:19.856Z,46.31
2019-06-25T08:24:49.909Z,46.37
2019-06-25T08:27:19.768Z,45.93
2019-06-25T08:29:49.624Z,45.99
2019-06-25T08:32:19.329Z,46.06
2019-06-25T08:34:49.338Z,45.72
2019-06-25T08:37:19.131Z,45.87
2019-06-25T08:39:49.012Z,46.18
2019-06-25T08:42:18.877Z,46.41
2019-06-25T08:44:48.783Z,46.47
2019-06-25T08:47:18.543Z,46.06
2019-06-25T08:49:48.381Z,45.75
2019-06-25T08:52:18.177Z,45.40
2019-06-25T08:54:48.201Z,45.66
2019-06-25T08:57:17.952Z,45.54
2019-06-25T08:59:47.749Z,45.53
2019-06-25T09:02:17.443Z,45.41
2019-06-25T09:04:57.610Z,44.73
2019-06-25T09:07:18.661Z,44.76
2019-06-25T09:09:48.473Z,44.96
2019-06-25T09:12:19.132Z,44.92
2019-06-25T09:14:48.975Z,44.48
2019-06-25T09:17:18.804Z,44.46
2019-06-25T09:19:50.537Z,44.46
2019-06-25T09:22:20.110Z,43.86
2019-06-25T09:24:49.859Z,43.88
2019-06-25T09:27:19.651Z,43.80
2019-06-25T09:29:49.506Z,43.96
2019-06-25T09:32:19.364Z,44.04
2019-06-25T09:34:49.232Z,43.86
2019-06-25T09:37:19.021Z,43.80
2019-06-25T09:39:47.062Z,43.46
2019-06-25T09:42:15.039Z,43.22
2019-06-25T09:44:43.045Z,43.13
2019-06-25T09:47:13.585Z,43.29
2019-06-25T09:49:43.905Z,43.09
2019-06-25T09:52:13.792Z,43.54
2019-06-25T09:54:43.514Z,43.50
2019-06-25T09:57:13.203Z,43.33
2019-06-25T09:59:43.016Z,43.61
2019-06-25T10:02:12.748Z,43.93
2019-06-25T10:04:42.619Z,43.38
2019-06-25T10:07:15.512Z,43.69
2019-06-25T10:09:43.786Z,43.70
2019-06-25T10:12:13.532Z,43.27
2019-06-25T10:14:43.287Z,43.34
2019-06-25T10:17:13.119Z,43.10
2019-06-25T10:19:42.798Z,42.89
2019-06-25T10:22:12.525Z,42.96
2019-06-25T10:24:42.279Z,43.01
2019-06-25T10:27:12.041Z,43.37
2019-06-25T10:29:42.602Z,43.48
2019-06-25T10:32:12.646Z,42.99
2019-06-25T10:34:42.306Z,42.91
2019-06-25T10:37:11.993Z,42.52
2019-06-25T10:39:41.709Z,42.77
2019-06-25T10:42:11.384Z,42.21
2019-06-25T10:44:41.053Z,42.44
2019-06-25T10:47:11.749Z,42.93
2019-06-25T10:49:41.795Z,42.87
2019-06-25T10:52:11.479Z,42.75
2019-06-25T10:54:41.300Z,42.92
2019-06-25T10:57:11.395Z,42.33
2019-06-25T10:59:41.086Z,42.29
2019-06-25T11:02:10.910Z,41.83
2019-06-25T11:04:40.678Z,41.61
2019-06-25T11:07:10.383Z,41.05
2019-06-25T11:09:40.473Z,40.01
2019-06-25T11:12:13.863Z,40.71
2019-06-25T11:14:41.700Z,40.85
2019-06-25T11:17:11.511Z,40.50
2019-06-25T11:19:41.289Z,40.71
2019-06-25T11:22:11.007Z,40.42
2019-06-25T11:24:40.707Z,40.02
2019-06-25T11:27:10.454Z,39.94
2019-06-25T11:29:41.478Z,39.92
2019-06-25T11:32:11.468Z,41.48
2019-06-25T11:34:41.165Z,40.34
2019-06-25T11:37:11.294Z,39.55
2019-06-25T11:39:41.034Z,39.06
2019-06-25T11:42:10.748Z,39.55
2019-06-25T11:44:40.439Z,37.97
2019-06-25T11:47:10.186Z,38.38
2019-06-25T11:49:40.052Z,38.61
2019-06-25T11:52:10.923Z,38.52
2019-06-25T11:54:40.823Z,38.39
2019-06-25T11:57:10.508Z,38.20
2019-06-25T11:59:40.173Z,38.12
2019-06-25T12:02:09.941Z,38.51
2019-06-25T12:04:39.671Z,38.49
2019-06-25T12:07:09.470Z,38.44
2019-06-25T12:09:39.117Z,38.40
2019-06-25T12:12:08.891Z,38.57
2019-06-25T12:14:38.544Z,38.63
2019-06-25T12:17:08.316Z,38.11
2019-06-25T12:19:48.087Z,38.67
2019-06-25T12:22:09.492Z,38.68
2019-06-25T12:24:39.184Z,38.62
2019-06-25T12:27:08.904Z,38.38
2019-06-25T12:29:38.686Z,38.55
2019-06-25T12:32:08.494Z,37.33
2019-06-25T12:34:38.179Z,37.39
2019-06-25T12:37:10.030Z,37.75
2019-06-25T12:39:39.474Z,37.49
2019-06-25T12:42:09.235Z,37.02
2019-06-25T12:44:38.921Z,36.66
2019-06-25T12:47:08.738Z,36.34
2019-06-25T12:49:38.476Z,35.63
2019-06-25T12:52:08.320Z,36.33
2019-06-25T12:54:37.970Z,36.42
2019-06-25T12:57:07.753Z,36.62
2019-06-25T12:59:37.464Z,37.00
2019-06-25T13:02:08.805Z,36.04
2019-06-25T13:04:38.701Z,35.89
2019-06-25T13:07:24.497Z,36.05
2019-06-25T13:09:40.217Z,36.41
2019-06-25T13:12:10.019Z,36.71
2019-06-25T13:14:39.847Z,36.58
2019-06-25T13:17:09.591Z,35.77
2019-06-25T13:19:39.331Z,35.77
2019-06-25T13:22:09.077Z,35.66
2019-06-25T13:24:40.553Z,35.92
2019-06-25T13:27:10.226Z,36.31
2019-06-25T13:29:39.874Z,35.57
2019-06-25T13:32:09.662Z,35.71
2019-06-25T13:34:39.640Z,34.59
2019-06-25T13:37:09.459Z,34.05
2019-06-25T13:39:39.159Z,34.20
2019-06-25T13:42:08.941Z,33.94
2019-06-25T13:44:39.878Z,33.95
2019-06-25T13:47:09.944Z,33.57
2019-06-25T13:49:39.790Z,33.41
2019-06-25T13:52:09.674Z,33.32
2019-06-25T13:54:40.016Z,33.57
2019-06-25T13:57:10.079Z,33.55
2019-06-25T13:59:39.783Z,33.26
2019-06-25T14:02:09.602Z,33.22
2019-06-25T14:04:39.301Z,33.10
2019-06-25T14:07:09.122Z,33.20
2019-06-25T14:09:38.805Z,33.18
2019-06-25T14:12:08.519Z,32.91
2019-06-25T14:14:38.235Z,32.71
2019-06-25T14:17:08.094Z,32.74
2019-06-25T14:19:38.642Z,31.43
2019-06-25T14:22:08.495Z,31.18
2019-06-25T14:24:38.192Z,31.03
2019-06-25T14:27:08.142Z,30.93
2019-06-25T14:29:37.882Z,30.23
2019-06-25T14:32:07.632Z,29.89
2019-06-25T14:34:37.428Z,29.71
2019-06-25T14:37:07.224Z,29.07
2019-06-25T14:39:36.886Z,28.89
2019-06-25T14:42:06.838Z,29.11
2019-06-25T14:44:36.534Z,28.95
2019-06-25T14:47:06.392Z,29.56
2019-06-25T14:49:36.143Z,29.84
2019-06-25T14:52:06.432Z,29.71
2019-06-25T14:54:36.192Z,29.44
2019-06-25T14:57:06.071Z,29.29
2019-06-25T14:59:35.848Z,29.51
2019-06-25T15:02:05.699Z,30.23
2019-06-25T15:04:35.427Z,30.62
2019-06-25T15:07:05.307Z,29.37
2019-06-25T15:09:44.240Z,28.89
2019-06-25T15:12:06.596Z,28.18
2019-06-25T15:14:36.654Z,27.90
2019-06-25T15:17:06.390Z,27.84
2019-06-25T15:19:36.114Z,27.07
2019-06-25T15:22:06.104Z,27.60
2019-06-25T15:24:38.914Z,27.80
2019-06-25T15:27:07.383Z,27.72
2019-06-25T15:29:37.112Z,27.84
2019-06-25T15:32:07.035Z,28.04
2019-06-25T15:34:36.987Z,28.00
2019-06-25T15:37:06.823Z,28.42
2019-06-25T15:39:36.591Z,29.01
2019-06-25T15:42:06.392Z,29.40
2019-06-25T15:44:36.102Z,29.57
2019-06-25T15:47:05.994Z,29.76
2019-06-25T15:49:35.843Z,29.77
2019-06-25T15:52:05.752Z,29.70
2019-06-25T15:54:35.546Z,29.79
2019-06-25T15:57:05.682Z,30.21
2019-06-25T15:59:35.321Z,30.67
2019-06-25T16:02:05.235Z,31.01
2019-06-25T16:04:34.962Z,31.44
2019-06-25T16:07:04.914Z,31.41
2019-06-25T16:09:34.740Z,31.42
2019-06-25T16:12:04.591Z,31.49
2019-06-25T16:14:34.262Z,31.83
2019-06-25T16:17:04.052Z,32.20
2019-06-25T16:19:33.800Z,32.63
2019-06-25T16:22:03.549Z,32.75
2019-06-25T16:24:33.497Z,32.15
2019-06-25T16:27:03.205Z,32.36
2019-06-25T16:29:32.994Z,32.41
2019-06-25T16:32:02.710Z,32.71
2019-06-25T16:34:32.390Z,32.75
2019-06-25T16:37:02.359Z,33.13
2019-06-25T16:39:32.823Z,33.34
2019-06-25T16:42:02.570Z,33.26
2019-06-25T16:44:32.235Z,33.26
2019-06-25T16:47:02.142Z,33.22
2019-06-25T16:49:31.893Z,33.73
2019-06-25T16:52:01.673Z,33.58
2019-06-25T16:54:31.412Z,33.36
2019-06-25T16:57:01.125Z,33.07
2019-06-25T16:59:30.805Z,33.57
2019-06-25T17:02:00.574Z,33.83
2019-06-25T17:04:30.353Z,34.31
2019-06-25T17:07:00.086Z,33.66
2019-06-25T17:09:35.193Z,33.85
2019-06-25T17:12:01.332Z,34.52
2019-06-25T17:14:31.021Z,34.90
2019-06-25T17:17:01.008Z,35.23
2019-06-25T17:19:30.711Z,35.66
2019-06-25T17:22:00.706Z,36.13
2019-06-25T17:24:30.423Z,36.21
2019-06-25T17:27:00.176Z,36.57
2019-06-25T17:29:29.893Z,36.69
2019-06-25T17:32:00.569Z,37.08
2019-06-25T17:34:30.262Z,37.18
2019-06-25T17:36:59.956Z,37.23
2019-06-25T17:39:29.744Z,37.17
2019-06-25T17:41:59.430Z,37.49
2019-06-25T17:44:29.724Z,37.54
2019-06-25T17:46:59.463Z,37.90
2019-06-25T17:49:29.367Z,38.08
2019-06-25T17:51:59.168Z,37.93
2019-06-25T17:54:28.885Z,38.25
2019-06-25T17:56:58.631Z,38.44
2019-06-25T17:59:28.422Z,38.72
2019-06-25T18:01:58.170Z,38.65
2019-06-25T18:04:27.892Z,39.08
2019-06-25T18:06:57.598Z,39.48
2019-06-25T18:09:39.821Z,40.17
2019-06-25T18:11:59.065Z,40.41
2019-06-25T18:14:28.863Z,40.77
2019-06-25T18:16:58.546Z,41.04
2019-06-25T18:19:28.273Z,41.27
2019-06-25T18:21:58.118Z,41.62
2019-06-25T18:24:27.765Z,41.92
2019-06-25T18:26:57.484Z,42.20
2019-06-25T18:29:27.228Z,42.42
2019-06-25T18:32:07.613Z,42.66
2019-06-25T18:34:29.426Z,42.95
2019-06-25T18:36:59.099Z,43.24
2019-06-25T18:39:28.725Z,43.57
2019-06-25T18:41:58.400Z,43.65
2019-06-25T18:44:28.173Z,44.03
2019-06-25T18:46:57.887Z,44.28
2019-06-25T18:49:27.502Z,44.61
2019-06-25T18:51:57.181Z,44.68
2019-06-25T18:54:26.954Z,44.96
2019-06-25T18:56:56.737Z,45.22
2019-06-25T18:59:26.468Z,45.58
2019-06-25T19:01:56.277Z,45.87
2019-06-25T19:04:25.986Z,45.86
2019-06-25T19:06:55.666Z,46.07
2019-06-25T19:09:25.304Z,46.35
2019-06-25T19:11:55.042Z,46.49
2019-06-25T19:14:24.853Z,46.60
2019-06-25T19:16:54.598Z,46.78
2019-06-25T19:19:24.374Z,46.97
2019-06-25T19:21:54.001Z,47.29
2019-06-25T19:24:23.670Z,47.63
2019-06-25T19:26:53.458Z,47.47
2019-06-25T19:29:23.176Z,47.81
2019-06-25T19:31:53.128Z,48.07
2019-06-25T19:34:23.735Z,48.24
2019-06-25T19:36:53.838Z,48.46
2019-06-25T19:39:23.691Z,48.57
2019-06-25T19:41:53.474Z,48.73
2019-06-25T19:44:23.233Z,48.97
2019-06-25T19:46:53.057Z,49.11
2019-06-25T19:49:22.857Z,49.24
2019-06-25T19:51:52.563Z,49.43
2019-06-25T19:54:22.318Z,49.68
2019-06-25T19:56:52.049Z,49.96
2019-06-25T19:59:21.805Z,50.16
2019-06-25T20:01:51.614Z,50.19
2019-06-25T20:04:21.335Z,50.38
2019-06-25T20:06:51.149Z,50.51
2019-06-25T20:09:20.875Z,50.59
2019-06-25T20:11:50.611Z,50.54
2019-06-25T20:14:20.331Z,50.59
2019-06-25T20:16:53.780Z,50.45
2019-06-25T20:19:23.455Z,50.40
2019-06-25T20:21:53.203Z,50.43
2019-06-25T20:24:23.424Z,50.42
2019-06-25T20:26:53.151Z,50.72
2019-06-25T20:29:22.860Z,51.26
2019-06-25T20:31:52.645Z,51.28
2019-06-25T20:34:22.394Z,51.15
2019-06-25T20:36:52.100Z,51.33
2019-06-25T20:39:21.971Z,51.32
2019-06-25T20:41:51.626Z,51.42
2019-06-25T20:44:21.414Z,51.29
2019-06-25T20:46:51.168Z,51.68
2019-06-25T20:49:20.908Z,51.65
2019-06-25T20:51:50.578Z,51.60
2019-06-25T20:54:20.351Z,51.25
2019-06-25T20:56:50.048Z,51.47
2019-06-25T20:59:19.748Z,51.45
2019-06-25T21:01:49.545Z,51.46
2019-06-25T21:04:19.381Z,51.61
2019-06-25T21:06:49.195Z,51.80
2019-06-25T21:09:18.903Z,51.86
2019-06-25T21:11:49.187Z,52.09
2019-06-25T21:14:19.061Z,52.02
2019-06-25T21:16:49.473Z,52.14
2019-06-25T21:19:19.148Z,52.18
2019-06-25T21:21:48.811Z,52.02
2019-06-25T21:24:18.586Z,52.14
2019-06-25T21:26:49.184Z,52.27
2019-06-25T21:29:20.345Z,52.41
2019-06-25T21:31:50.812Z,52.70
2019-06-25T21:34:21.617Z,52.80
2019-06-25T21:36:51.500Z,52.89
2019-06-25T21:39:21.225Z,53.08
2019-06-25T21:42:03.894Z,53.30
2019-06-25T21:44:22.316Z,53.55
2019-06-25T21:47:06.013Z,53.62
2019-06-25T21:49:24.464Z,53.64
2019-06-25T21:51:54.731Z,53.79
2019-06-25T21:54:24.535Z,54.07
2019-06-25T21:56:54.201Z,54.03
2019-06-25T21:59:24.012Z,54.16
2019-06-25T22:01:57.882Z,54.30
2019-06-25T22:04:28.929Z,54.23
2019-06-25T22:06:58.710Z,54.24
2019-06-25T22:09:28.493Z,54.17
2019-06-25T22:11:59.247Z,54.23
2019-06-25T22:14:29.008Z,54.16
2019-06-25T22:16:58.918Z,53.98
2019-06-25T22:19:28.589Z,54.21
2019-06-25T22:21:58.292Z,54.24
2019-06-25T22:24:28.066Z,54.33
2019-06-25T22:26:57.912Z,54.27
2019-06-25T22:29:27.635Z,54.29
2019-06-25T22:31:57.341Z,54.73
2019-06-25T22:34:27.112Z,54.71
2019-06-25T22:36:57.063Z,55.23
2019-06-25T22:39:26.739Z,55.64
2019-06-25T22:41:56.458Z,56.04
2019-06-25T22:44:26.371Z,56.25
2019-06-25T22:46:56.211Z,56.55
2019-06-25T22:49:25.889Z,56.64
2019-06-25T22:51:55.769Z,57.16
2019-06-25T22:54:25.510Z,57.23
2019-06-25T22:56:55.266Z,57.55
2019-06-25T22:59:25.373Z,57.68
2019-06-25T23:01:55.132Z,57.81
2019-06-25T23:04:24.845Z,57.97
2019-06-25T23:06:54.577Z,58.10
2019-06-25T23:09:24.312Z,58.53
2019-06-25T23:11:54.061Z,58.67
2019-06-25T23:14:23.749Z,59.10
2019-06-25T23:16:53.630Z,59.14
2019-06-25T23:19:23.294Z,59.28
2019-06-25T23:21:53.007Z,59.63
2019-06-25T23:24:22.767Z,59.82
2019-06-25T23:26:52.455Z,60.00
2019-06-25T23:29:22.122Z,60.25
2019-06-25T23:31:52.085Z,60.61
2019-06-25T23:34:21.768Z,60.74
2019-06-25T23:36:51.522Z,60.89
2019-06-25T23:39:21.230Z,61.24
2019-06-25T23:41:51.031Z,61.72
2019-06-25T23:44:20.711Z,61.76
2019-06-25T23:46:50.376Z,62.02
2019-06-25T23:49:20.131Z,62.32
2019-06-25T23:51:49.897Z,62.62
2019-06-25T23:54:19.718Z,62.87
2019-06-25T23:56:49.394Z,63.20
2019-06-25T23:59:19.170Z,63.06
